createdAt,value
2023-05-08T00:02:17.051Z,102261.20
2023-05-08T00:04:45.744Z,102256.00
2023-05-08T00:07:14.617Z,102258.00
2023-05-08T00:09:43.406Z,102255.60
2023-05-08T00:12:12.085Z,102259.40
2023-05-08T00:14:40.887Z,102253.40
2023-05-08T00:17:09.561Z,102253.80
2023-05-08T00:19:38.349Z,102259.80
2023-05-08T00:22:06.946Z,102261.60
2023-05-08T00:24:35.619Z,102261.00
2023-05-08T00:27:04.210Z,102257.00
2023-05-08T00:29:32.791Z,102257.60
2023-05-08T00:32:01.405Z,102256.00
2023-05-08T00:34:30.074Z,102262.00
2023-05-08T00:36:58.757Z,102262.60
2023-05-08T00:39:27.434Z,102262.00
2023-05-08T00:41:56.222Z,102256.40
2023-05-08T00:44:24.907Z,102262.40
2023-05-08T00:46:53.596Z,102255.80
2023-05-08T00:49:22.895Z,102257.00
2023-05-08T00:51:54.712Z,102267.00
2023-05-08T00:54:24.178Z,102270.40
2023-05-08T00:56:53.588Z,102272.00
2023-05-08T00:59:23.298Z,102273.60
2023-05-08T01:01:53.135Z,102271.40
2023-05-08T01:04:25.433Z,102272.40
2023-05-08T01:06:53.945Z,102271.80
2023-05-08T01:09:22.763Z,102276.80
2023-05-08T01:12:02.278Z,102276.20
2023-05-08T01:14:39.360Z,102279.80
2023-05-08T01:17:23.878Z,102282.00
2023-05-08T01:20:01.365Z,102281.80
2023-05-08T01:22:56.828Z,102284.20
2023-05-08T01:25:56.233Z,102280.60
2023-05-08T01:28:42.637Z,102279.80
2023-05-08T01:31:54.652Z,102283.00
2023-05-08T01:34:32.744Z,102290.80
2023-05-08T01:37:15.053Z,102290.80
2023-05-08T01:40:23.474Z,102290.00
2023-05-08T01:43:00.658Z,102289.00
2023-05-08T01:45:45.326Z,102294.80
2023-05-08T01:48:32.027Z,102296.00
2023-05-08T01:51:19.386Z,102299.20
2023-05-08T01:54:01.227Z,102300.00
2023-05-08T01:56:30.740Z,102305.40
2023-05-08T01:59:02.869Z,102303.00
2023-05-08T02:01:33.633Z,102305.40
2023-05-08T02:04:04.063Z,102306.60
2023-05-08T02:06:33.697Z,102312.40
2023-05-08T02:09:03.418Z,102315.00
2023-05-08T02:11:33.324Z,102316.00
2023-05-08T02:14:03.720Z,102318.00
2023-05-08T02:16:33.559Z,102316.80
2023-05-08T02:19:03.430Z,102318.60
2023-05-08T02:21:33.512Z,102315.80
2023-05-08T02:24:03.656Z,102319.20
2023-05-08T02:26:34.511Z,102324.20
2023-05-08T02:29:04.333Z,102329.60
2023-05-08T02:31:33.505Z,102326.40
2023-05-08T02:34:05.538Z,102327.00
2023-05-08T02:36:35.966Z,102329.20
2023-05-08T02:39:07.587Z,102326.40
2023-05-08T02:41:38.686Z,102326.80
2023-05-08T02:44:07.300Z,102329.60
2023-05-08T02:47:01.119Z,102328.20
2023-05-08T02:49:47.014Z,102326.40
2023-05-08T02:52:38.326Z,102329.80
2023-05-08T02:55:36.612Z,102328.60
2023-05-08T02:58:35.403Z,102323.80
2023-05-08T03:01:29.234Z,102322.20
2023-05-08T03:04:06.401Z,102332.40
2023-05-08T03:06:46.006Z,102335.60
2023-05-08T03:09:21.779Z,102337.40
2023-05-08T03:11:59.555Z,102341.40
2023-05-08T03:14:30.395Z,102335.80
2023-05-08T03:17:01.230Z,102338.00
2023-05-08T03:19:38.495Z,102332.00
2023-05-08T03:22:10.439Z,102332.00
2023-05-08T03:24:41.380Z,102330.20
2023-05-08T03:27:11.336Z,102332.60
2023-05-08T03:29:40.240Z,102336.00
2023-05-08T03:32:11.373Z,102332.40
2023-05-08T03:34:41.285Z,102333.80
2023-05-08T03:37:09.870Z,102337.40
2023-05-08T03:39:38.867Z,102337.20
2023-05-08T03:42:07.569Z,102341.80
2023-05-08T03:44:37.982Z,102339.40
2023-05-08T03:47:07.155Z,102340.00
2023-05-08T03:49:38.582Z,102335.80
2023-05-08T03:52:07.682Z,102336.40
2023-05-08T03:54:36.415Z,102339.40
2023-05-08T03:57:05.413Z,102340.60
2023-05-08T04:00:22.122Z,102338.60
2023-05-08T04:03:01.850Z,102337.40
2023-05-08T04:05:38.134Z,102337.20
2023-05-08T04:08:17.546Z,102336.00
2023-05-08T04:11:21.495Z,102337.80
2023-05-08T04:13:58.071Z,102338.00
2023-05-08T04:16:35.966Z,102335.60
2023-05-08T04:19:21.241Z,102336.00
2023-05-08T04:21:51.513Z,102335.80
2023-05-08T04:24:22.807Z,102338.80
2023-05-08T04:26:52.434Z,102337.20
2023-05-08T04:29:21.318Z,102340.00
2023-05-08T04:31:51.525Z,102340.60
2023-05-08T04:34:20.422Z,102333.40
2023-05-08T04:36:49.513Z,102337.20
2023-05-08T04:39:20.204Z,102336.20
2023-05-08T04:41:51.363Z,102334.80
2023-05-08T04:44:20.407Z,102340.20
2023-05-08T04:46:50.418Z,102337.20
2023-05-08T04:49:19.515Z,102334.00
2023-05-08T04:51:48.207Z,102343.40
2023-05-08T04:54:16.996Z,102334.80
2023-05-08T04:56:45.986Z,102337.40
2023-05-08T04:59:16.080Z,102332.40
2023-05-08T05:01:48.309Z,102330.80
2023-05-08T05:04:17.537Z,102332.00
2023-05-08T05:06:46.369Z,102328.40
2023-05-08T05:09:16.691Z,102324.80
2023-05-08T05:11:45.270Z,102327.00
2023-05-08T05:14:14.368Z,102327.00
2023-05-08T05:16:43.492Z,102329.40
2023-05-08T05:19:12.877Z,102327.00
2023-05-08T05:21:41.966Z,102325.60
2023-05-08T05:24:10.649Z,102322.20
2023-05-08T05:26:39.356Z,102320.60
2023-05-08T05:29:08.536Z,102316.00
2023-05-08T05:31:37.666Z,102311.60
2023-05-08T05:34:06.421Z,102317.80
2023-05-08T05:36:35.217Z,102312.60
2023-05-08T05:39:04.331Z,102317.20
2023-05-08T05:41:34.405Z,102311.80
2023-05-08T05:44:03.440Z,102307.60
2023-05-08T05:46:34.777Z,102309.60
2023-05-08T05:49:04.260Z,102310.40
2023-05-08T05:51:33.262Z,102307.60
2023-05-08T05:54:02.568Z,102303.60
2023-05-08T05:56:31.490Z,102305.00
2023-05-08T05:59:00.163Z,102297.20
2023-05-08T06:01:29.456Z,102295.60
2023-05-08T06:03:58.470Z,102298.20
2023-05-08T06:06:27.362Z,102293.60
2023-05-08T06:08:55.919Z,102291.20
2023-05-08T06:11:25.013Z,102290.20
2023-05-08T06:13:53.600Z,102293.60
2023-05-08T06:16:23.484Z,102287.00
2023-05-08T06:18:52.203Z,102284.60
2023-05-08T06:21:20.889Z,102287.20
2023-05-08T06:23:49.880Z,102279.80
2023-05-08T06:26:18.464Z,102280.20
2023-05-08T06:28:47.256Z,102279.80
2023-05-08T06:31:16.259Z,102276.80
2023-05-08T06:33:44.949Z,102283.20
2023-05-08T06:36:13.830Z,102279.00
2023-05-08T06:38:42.427Z,102272.40
2023-05-08T06:41:10.906Z,102268.40
2023-05-08T06:43:39.485Z,102265.80
2023-05-08T06:46:08.792Z,102269.40
2023-05-08T06:48:37.365Z,102278.80
2023-05-08T06:51:06.053Z,102270.80
2023-05-08T06:53:34.640Z,102274.00
2023-05-08T06:56:03.222Z,102274.20
2023-05-08T06:58:32.666Z,102268.20
2023-05-08T07:01:04.080Z,102266.00
2023-05-08T07:03:32.970Z,102267.00
2023-05-08T07:06:01.865Z,102266.40
2023-05-08T07:08:30.547Z,102262.20
2023-05-08T07:10:59.029Z,102265.80
2023-05-08T07:13:27.873Z,102267.80
2023-05-08T07:15:56.753Z,102263.00
2023-05-08T07:18:25.306Z,102263.20
2023-05-08T07:20:53.981Z,102259.40
2023-05-08T07:23:22.569Z,102261.40
2023-05-08T07:25:51.258Z,102267.20
2023-05-08T07:28:19.837Z,102262.40
2023-05-08T07:30:48.652Z,102261.60
2023-05-08T07:33:17.227Z,102264.60
2023-05-08T07:35:46.206Z,102264.20
2023-05-08T07:38:14.686Z,102275.80
2023-05-08T07:40:43.279Z,102269.60
2023-05-08T07:43:13.491Z,102279.60
2023-05-08T07:45:42.178Z,102284.80
2023-05-08T07:48:12.146Z,102281.40
2023-05-08T07:50:41.188Z,102288.00
2023-05-08T07:53:09.779Z,102288.60
2023-05-08T07:55:38.355Z,102287.20
2023-05-08T07:58:07.968Z,102282.40
2023-05-08T08:00:36.960Z,102286.00
2023-05-08T08:03:05.444Z,102284.20
2023-05-08T08:05:34.129Z,102292.80
2023-05-08T08:08:02.815Z,102286.40
2023-05-08T08:10:31.815Z,102287.60
2023-05-08T08:13:02.218Z,102286.40
2023-05-08T08:15:31.236Z,102297.40
2023-05-08T08:17:59.795Z,102289.20
2023-05-08T08:20:28.502Z,102293.00
2023-05-08T08:22:57.099Z,102293.40
2023-05-08T08:25:25.774Z,102286.00
2023-05-08T08:27:54.367Z,102280.40
2023-05-08T08:30:23.120Z,102292.80
2023-05-08T08:32:51.924Z,102282.20
2023-05-08T08:35:21.039Z,102290.40
2023-05-08T08:37:49.828Z,102298.60
2023-05-08T08:40:18.307Z,102296.40
2023-05-08T08:42:47.712Z,102303.20
2023-05-08T08:45:16.658Z,102301.60
2023-05-08T08:47:46.878Z,102299.20
2023-05-08T08:50:16.843Z,102304.40
2023-05-08T08:53:01.521Z,102296.40
2023-05-08T08:55:31.443Z,102300.60
2023-05-08T08:58:21.628Z,102297.40
2023-05-08T09:00:51.124Z,102291.00
2023-05-08T09:03:19.786Z,102293.80
2023-05-08T09:05:51.671Z,102296.20
2023-05-08T09:08:20.558Z,102292.80
2023-05-08T09:10:49.473Z,102294.60
2023-05-08T09:13:19.930Z,102299.00
2023-05-08T09:15:50.842Z,102298.80
2023-05-08T09:18:19.604Z,102295.80
2023-05-08T09:20:48.976Z,102306.40
2023-05-08T09:23:18.570Z,102284.80
2023-05-08T09:25:50.793Z,102293.40
2023-05-08T09:28:23.582Z,102289.60
2023-05-08T09:30:58.173Z,102301.40
2023-05-08T09:33:29.491Z,102302.40
2023-05-08T09:35:58.545Z,102308.80
2023-05-08T09:38:35.391Z,102309.60
2023-05-08T09:41:24.381Z,102298.60
2023-05-08T09:44:04.039Z,102304.00
2023-05-08T09:46:36.735Z,102307.20
2023-05-08T09:49:05.285Z,102319.60
2023-05-08T09:51:33.973Z,102306.20
2023-05-08T09:54:06.142Z,102307.80
2023-05-08T09:56:40.294Z,102303.40
2023-05-08T09:59:33.890Z,102301.80
2023-05-08T10:02:11.264Z,102298.20
2023-05-08T10:04:39.942Z,102300.00
2023-05-08T10:07:08.698Z,102297.60
2023-05-08T10:09:49.928Z,102299.40
2023-05-08T10:12:21.941Z,102290.20
2023-05-08T10:14:51.244Z,102291.60
2023-05-08T10:17:27.284Z,102284.60
2023-05-08T10:20:02.629Z,102284.80
2023-05-08T10:22:33.934Z,102285.20
2023-05-08T10:25:04.057Z,102283.40
2023-05-08T10:27:45.602Z,102274.60
2023-05-08T10:30:17.864Z,102270.80
2023-05-08T10:32:52.085Z,102274.40
2023-05-08T10:35:21.698Z,102275.80
2023-05-08T10:37:50.616Z,102275.80
2023-05-08T10:40:21.666Z,102272.60
2023-05-08T10:42:52.282Z,102277.60
2023-05-08T10:45:21.054Z,102273.00
2023-05-08T10:48:36.128Z,102258.20
2023-05-08T10:51:33.696Z,102258.40
2023-05-08T10:54:14.156Z,102266.00
2023-05-08T10:56:42.741Z,102249.40
2023-05-08T10:59:21.400Z,102247.00
2023-05-08T11:01:50.761Z,102253.00
2023-05-08T11:04:24.047Z,102250.60
2023-05-08T11:06:55.613Z,102242.00
2023-05-08T11:09:31.331Z,102244.00
2023-05-08T11:12:23.823Z,102250.80
2023-05-08T11:15:09.631Z,102232.80
2023-05-08T11:17:40.470Z,102250.20
2023-05-08T11:20:09.617Z,102232.60
2023-05-08T11:22:39.144Z,102232.40
2023-05-08T11:25:11.983Z,102237.80
2023-05-08T11:27:47.378Z,102240.20
2023-05-08T11:30:39.302Z,102234.80
2023-05-08T11:33:10.745Z,102235.20
2023-05-08T11:35:55.001Z,102236.40
2023-05-08T11:38:27.637Z,102238.00
2023-05-08T11:41:04.681Z,102219.40
2023-05-08T11:43:33.445Z,102228.80
2023-05-08T11:46:17.726Z,102229.40
2023-05-08T11:48:46.488Z,102224.00
2023-05-08T11:51:21.404Z,102216.80
2023-05-08T11:53:50.109Z,102220.00
2023-05-08T11:56:19.415Z,102216.40
2023-05-08T11:58:48.104Z,102217.80
2023-05-08T12:01:23.036Z,102218.80
2023-05-08T12:04:05.396Z,102211.60
2023-05-08T12:06:36.322Z,102210.00
2023-05-08T12:09:16.138Z,102207.80
2023-05-08T12:11:45.849Z,102211.20
2023-05-08T12:14:18.448Z,102212.80
2023-05-08T12:16:47.121Z,102211.20
2023-05-08T12:19:15.789Z,102214.00
2023-05-08T12:21:49.118Z,102212.80
2023-05-08T12:24:25.763Z,102209.80
2023-05-08T12:26:58.852Z,102214.00
2023-05-08T12:29:27.646Z,102212.00
2023-05-08T12:31:56.440Z,102215.60
2023-05-08T12:34:25.759Z,102210.40
2023-05-08T12:37:12.850Z,102201.60
2023-05-08T12:39:44.821Z,102206.00
2023-05-08T12:42:13.306Z,102217.80
2023-05-08T12:44:51.101Z,102201.60
2023-05-08T12:47:20.959Z,102201.00
2023-05-08T12:49:50.516Z,102205.40
2023-05-08T12:52:19.722Z,102197.00
2023-05-08T12:54:49.557Z,102199.60
2023-05-08T12:57:21.644Z,102205.20
2023-05-08T12:59:50.322Z,102190.80
2023-05-08T13:02:23.962Z,102178.40
2023-05-08T13:04:58.358Z,102189.60
2023-05-08T13:07:33.209Z,102186.40
2023-05-08T13:10:05.943Z,102188.40
2023-05-08T13:12:34.714Z,102192.60
2023-05-08T13:15:05.174Z,102191.60
2023-05-08T13:17:33.870Z,102180.60
2023-05-08T13:20:09.991Z,102188.00
2023-05-08T13:22:38.782Z,102185.60
2023-05-08T13:25:08.649Z,102178.60
2023-05-08T13:27:38.410Z,102177.40
2023-05-08T13:30:08.395Z,102172.40
2023-05-08T13:32:36.925Z,102169.00
2023-05-08T13:35:06.314Z,102169.80
2023-05-08T13:37:34.837Z,102166.40
2023-05-08T13:40:05.015Z,102165.80
2023-05-08T13:42:33.598Z,102168.20
2023-05-08T13:45:02.409Z,102165.20
2023-05-08T13:47:31.602Z,102163.00
2023-05-08T13:50:00.553Z,102159.20
2023-05-08T13:52:32.465Z,102156.80
2023-05-08T13:55:01.024Z,102149.20
2023-05-08T13:57:29.707Z,102153.40
2023-05-08T13:59:58.309Z,102149.60
2023-05-08T14:02:27.570Z,102149.40
2023-05-08T14:04:57.204Z,102158.00
2023-05-08T14:07:26.419Z,102149.20
2023-05-08T14:09:54.992Z,102146.00
2023-05-08T14:12:23.677Z,102144.40
2023-05-08T14:14:52.385Z,102141.80
2023-05-08T14:17:21.150Z,102141.00
2023-05-08T14:19:49.973Z,102140.20
2023-05-08T14:22:18.739Z,102137.20
2023-05-08T14:24:47.472Z,102147.80
2023-05-08T14:27:16.011Z,102146.80
2023-05-08T14:29:44.785Z,102142.00
2023-05-08T14:32:13.592Z,102136.60
2023-05-08T14:34:42.635Z,102132.80
2023-05-08T14:37:13.331Z,102133.60
2023-05-08T14:39:42.112Z,102134.40
2023-05-08T14:44:42.350Z,102124.60
2023-05-08T14:47:11.229Z,102124.60
2023-05-08T14:49:40.030Z,102123.80
2023-05-08T14:52:08.726Z,102121.00
2023-05-08T14:54:37.499Z,102125.40
2023-05-08T14:57:06.705Z,102115.80
2023-05-08T14:59:35.305Z,102121.80
2023-05-08T15:02:04.339Z,102115.40
2023-05-08T15:04:33.370Z,102114.60
2023-05-08T15:07:01.957Z,102131.80
2023-05-08T15:09:30.637Z,102123.80
2023-05-08T15:11:59.328Z,102114.20
2023-05-08T15:14:28.011Z,102111.60
2023-05-08T15:16:56.907Z,102108.80
2023-05-08T15:19:25.725Z,102107.00
2023-05-08T15:21:54.282Z,102110.00
2023-05-08T15:24:22.960Z,102107.00
2023-05-08T15:26:51.759Z,102108.20
2023-05-08T15:29:21.143Z,102106.20
2023-05-08T15:31:51.914Z,102105.40
2023-05-08T15:34:29.568Z,102103.60
2023-05-08T15:37:01.463Z,102103.60
2023-05-08T15:39:30.338Z,102108.80
2023-05-08T15:41:59.451Z,102116.20
2023-05-08T15:44:41.535Z,102102.60
2023-05-08T15:47:16.983Z,102104.40
2023-05-08T15:49:45.786Z,102100.80
2023-05-08T15:52:19.011Z,102102.80
2023-05-08T15:54:48.799Z,102112.20
2023-05-08T15:57:17.835Z,102097.40
2023-05-08T15:59:46.494Z,102095.80
2023-05-08T16:02:16.055Z,102089.80
2023-05-08T16:04:44.759Z,102091.40
2023-05-08T16:07:14.147Z,102085.60
2023-05-08T16:09:43.490Z,102089.00
2023-05-08T16:12:12.264Z,102086.00
2023-05-08T16:14:40.937Z,102085.40
2023-05-08T16:17:09.640Z,102081.80
2023-05-08T16:19:40.101Z,102088.00
2023-05-08T16:22:08.951Z,102080.80
2023-05-08T16:24:37.738Z,102076.80
2023-05-08T16:27:07.149Z,102074.40
2023-05-08T16:29:35.822Z,102076.00
2023-05-08T16:32:04.615Z,102084.40
2023-05-08T16:34:35.460Z,102075.60
2023-05-08T16:37:04.153Z,102077.80
2023-05-08T16:39:33.033Z,102082.00
2023-05-08T16:42:02.335Z,102076.60
2023-05-08T16:44:30.932Z,102079.20
2023-05-08T16:46:59.787Z,102079.00
2023-05-08T16:49:28.707Z,102077.60
2023-05-08T16:51:57.872Z,102075.80
2023-05-08T16:54:26.736Z,102076.80
2023-05-08T16:56:56.429Z,102077.80
2023-05-08T16:59:25.302Z,102074.60
2023-05-08T17:01:55.628Z,102084.00
2023-05-08T17:04:24.623Z,102081.00
2023-05-08T17:06:53.601Z,102078.00
2023-05-08T17:09:22.391Z,102082.60
2023-05-08T17:11:51.385Z,102080.60
2023-05-08T17:14:20.195Z,102078.80
2023-05-08T17:16:49.024Z,102082.80
2023-05-08T17:19:18.577Z,102082.00
2023-05-08T17:21:47.335Z,102083.40
2023-05-08T17:24:16.597Z,102092.60
2023-05-08T17:26:46.078Z,102089.80
2023-05-08T17:29:15.097Z,102092.40
2023-05-08T17:31:44.047Z,102090.60
2023-05-08T17:34:12.872Z,102086.60
2023-05-08T17:36:42.146Z,102091.80
2023-05-08T17:39:11.878Z,102088.40
2023-05-08T17:41:40.775Z,102090.40
2023-05-08T17:44:09.845Z,102088.40
2023-05-08T17:46:38.631Z,102095.40
2023-05-08T17:49:07.532Z,102097.00
2023-05-08T17:51:36.956Z,102101.20
2023-05-08T17:54:05.716Z,102099.40
2023-05-08T17:56:34.605Z,102101.20
2023-05-08T17:59:03.407Z,102103.80
2023-05-08T18:01:32.233Z,102104.20
2023-05-08T18:04:01.085Z,102110.00
2023-05-08T18:06:30.343Z,102116.40
2023-05-08T18:08:59.098Z,102109.00
2023-05-08T18:11:28.376Z,102113.80
2023-05-08T18:13:57.264Z,102114.80
2023-05-08T18:16:26.748Z,102118.80
2023-05-08T18:18:55.558Z,102125.40
2023-05-08T18:21:24.960Z,102124.80
2023-05-08T18:23:53.874Z,102127.60
2023-05-08T18:26:25.843Z,102127.80
2023-05-08T18:28:55.549Z,102132.20
2023-05-08T18:31:24.568Z,102131.40
2023-05-08T18:33:53.624Z,102132.40
2023-05-08T18:36:22.404Z,102133.80
2023-05-08T18:38:51.345Z,102136.00
2023-05-08T18:41:20.087Z,102138.00
2023-05-08T18:43:48.891Z,102129.60
2023-05-08T18:46:18.202Z,102132.00
2023-05-08T18:48:47.755Z,102136.00
2023-05-08T18:51:17.605Z,102136.20
2023-05-08T18:53:47.121Z,102138.20
2023-05-08T18:56:15.993Z,102137.40
2023-05-08T18:58:44.588Z,102139.80
2023-05-08T19:01:13.722Z,102143.00
2023-05-08T19:03:42.422Z,102148.00
2023-05-08T19:06:11.471Z,102150.80
2023-05-08T19:08:40.045Z,102153.20
2023-05-08T19:11:10.707Z,102155.00
2023-05-08T19:13:39.683Z,102155.60
2023-05-08T19:16:08.332Z,102156.40
2023-05-08T19:18:37.050Z,102152.60
2023-05-08T19:21:06.860Z,102157.20
2023-05-08T19:23:35.558Z,102157.20
2023-05-08T19:26:04.244Z,102159.60
2023-05-08T19:28:33.242Z,102159.60
2023-05-08T19:31:02.042Z,102157.80
2023-05-08T19:33:30.805Z,102160.60
2023-05-08T19:35:59.398Z,102155.20
2023-05-08T19:38:27.986Z,102154.00
2023-05-08T19:40:57.920Z,102157.40
2023-05-08T19:43:27.509Z,102155.40
2023-05-08T19:45:56.659Z,102154.60
2023-05-08T19:48:25.614Z,102150.20
2023-05-08T19:50:55.214Z,102155.80
2023-05-08T19:53:24.395Z,102152.60
2023-05-08T19:55:52.997Z,102151.00
2023-05-08T19:58:21.776Z,102149.40
2023-05-08T20:00:51.801Z,102155.40
2023-05-08T20:03:21.021Z,102151.60
2023-05-08T20:05:52.330Z,102150.00
2023-05-08T20:08:21.024Z,102146.60
2023-05-08T20:10:49.810Z,102146.60
2023-05-08T20:13:18.754Z,102148.40
2023-05-08T20:15:47.821Z,102146.60
2023-05-08T20:18:16.650Z,102153.40
2023-05-08T20:20:46.398Z,102154.60
2023-05-08T20:23:15.304Z,102151.60
2023-05-08T20:25:46.638Z,102149.20
2023-05-08T20:28:16.143Z,102152.20
2023-05-08T20:30:44.769Z,102151.40
2023-05-08T20:33:13.515Z,102150.60
2023-05-08T20:35:42.408Z,102152.20
2023-05-08T20:38:11.678Z,102146.80
2023-05-08T20:40:40.608Z,102154.20
2023-05-08T20:43:09.904Z,102148.40
2023-05-08T20:45:39.341Z,102144.00
2023-05-08T20:48:07.935Z,102145.60
2023-05-08T20:50:36.682Z,102145.00
2023-05-08T20:53:05.581Z,102148.80
2023-05-08T20:55:34.258Z,102147.60
2023-05-08T20:58:04.488Z,102147.60
2023-05-08T21:00:34.702Z,102148.60
2023-05-08T21:03:03.756Z,102148.60
2023-05-08T21:05:32.287Z,102144.40
2023-05-08T21:08:02.657Z,102147.60
2023-05-08T21:10:31.701Z,102144.00
2023-05-08T21:13:00.344Z,102146.40
2023-05-08T21:15:29.096Z,102141.40
2023-05-08T21:17:58.143Z,102139.60
2023-05-08T21:20:26.967Z,102140.20
2023-05-08T21:22:55.765Z,102139.20
2023-05-08T21:25:24.441Z,102141.20
2023-05-08T21:27:55.169Z,102142.40
2023-05-08T21:30:24.277Z,102143.00
2023-05-08T21:32:53.082Z,102136.60
2023-05-08T21:35:22.568Z,102137.60
2023-05-08T21:37:54.404Z,102136.20
2023-05-08T21:40:23.631Z,102133.80
2023-05-08T21:42:52.215Z,102130.60
2023-05-08T21:45:20.803Z,102131.00
2023-05-08T21:47:49.417Z,102127.20
2023-05-08T21:50:18.379Z,102124.20
2023-05-08T21:52:46.963Z,102130.20
2023-05-08T21:55:16.032Z,102132.40
2023-05-08T21:57:44.746Z,102132.60
2023-05-08T22:00:14.666Z,102135.60
2023-05-08T22:02:49.260Z,102142.80
2023-05-08T22:05:18.189Z,102138.00
2023-05-08T22:07:46.866Z,102140.20
2023-05-08T22:10:15.571Z,102135.80
2023-05-08T22:12:44.356Z,102135.40
2023-05-08T22:15:25.614Z,102131.40
2023-05-08T22:17:57.644Z,102131.20
2023-05-08T22:20:26.377Z,102132.00
2023-05-08T22:22:55.065Z,102133.40
2023-05-08T22:25:25.495Z,102131.00
2023-05-08T22:27:54.192Z,102127.20
2023-05-08T22:30:22.978Z,102126.20
2023-05-08T22:32:57.472Z,102121.60
2023-05-08T22:35:29.964Z,102119.20
2023-05-08T22:37:58.751Z,102121.60
2023-05-08T22:40:28.398Z,102113.60
2023-05-08T22:42:59.017Z,102113.60
2023-05-08T22:45:28.606Z,102112.80
2023-05-08T22:47:57.872Z,102107.80
2023-05-08T22:50:26.591Z,102103.40
2023-05-08T22:52:55.285Z,102107.00
2023-05-08T22:55:24.294Z,102109.80
2023-05-08T22:57:52.860Z,102113.20
2023-05-08T23:00:21.868Z,102116.40
2023-05-08T23:02:50.567Z,102115.00
2023-05-08T23:05:19.404Z,102118.80
2023-05-08T23:07:48.012Z,102111.40
2023-05-08T23:10:16.805Z,102109.20
2023-05-08T23:12:45.628Z,102108.00
2023-05-08T23:15:14.979Z,102112.00
2023-05-08T23:17:43.798Z,102111.40
2023-05-08T23:20:13.544Z,102116.20
2023-05-08T23:22:42.186Z,102114.40
2023-05-08T23:25:12.403Z,102106.80
2023-05-08T23:27:41.498Z,102108.20
2023-05-08T23:30:13.464Z,102108.60
2023-05-08T23:32:42.618Z,102113.20
2023-05-08T23:35:11.747Z,102113.40
2023-05-08T23:37:40.463Z,102113.80
2023-05-08T23:40:10.058Z,102116.00
2023-05-08T23:42:40.102Z,102114.60
2023-05-08T23:45:11.386Z,102109.60
2023-05-08T23:47:40.121Z,102112.00
2023-05-08T23:50:09.740Z,102106.00
2023-05-08T23:52:38.304Z,102106.80
2023-05-08T23:55:08.120Z,102102.60
2023-05-08T23:57:37.023Z,102103.40
